Time;durP1;ratioP1;P1;durP2;ratioP2;P2;SDS_P1;SDS_P2;PMS_P1;PMS_P2;Temp;Humidity;BMP_temperature;BMP_pressure;BME280_temperature;BME280_humidity;BME280_pressure;Samples;Min_cycle;Max_cycle;Signal;HPM_P1;HPM_P2
2021/03/25 00:02:03;;;;;;;19.45;9.68;;;;;;;-3.26;66.17;100307.30;1662338;86;21123;-68
2021/03/25 00:04:31;;;;;;;24.57;10.55;;;;;;;-3.28;65.90;100303.83;1663087;86;21088;-67
2021/03/25 00:07:00;;;;;;;19.37;9.95;;;;;;;-3.29;65.89;100298.23;1673165;84;21149;-66
2021/03/25 00:09:35;;;;;;;19.30;9.35;;;;;;;-3.28;65.86;100292.23;1679945;85;21553;-66
2021/03/25 00:12:14;;;;;;;20.73;9.00;;;;;;;-3.21;65.67;100295.81;1820939;76;22772;-66
2021/03/25 00:14:42;;;;;;;27.58;10.23;;;;;;;-3.25;65.36;100296.16;1781674;77;21183;-74
2021/03/25 00:17:13;;;;;;;20.90;9.85;;;;;;;-3.23;65.37;100291.05;1724766;81;21449;-73
2021/03/25 00:19:44;;;;;;;22.98;9.80;;;;;;;-3.20;65.15;100293.28;1761649;80;21136;-73
2021/03/25 00:22:12;;;;;;;23.22;10.82;;;;;;;-3.19;65.29;100291.14;1761715;81;21137;-74
2021/03/25 00:24:42;;;;;;;13.23;6.93;;;;;;;-3.17;65.43;100288.61;1762003;81;21160;-73
2021/03/25 00:27:11;;;;;;;19.15;8.25;;;;;;;-3.15;65.45;100292.09;1761822;81;21184;-73
2021/03/25 00:29:43;;;;;;;32.63;11.50;;;;;;;-3.12;66.63;100289.56;1761124;80;21179;31
2021/03/25 00:32:11;;;;;;;19.42;10.28;;;;;;;-3.18;66.05;100279.98;1670069;85;21181;-68
2021/03/25 00:34:40;;;;;;;23.85;9.80;;;;;;;-3.04;65.50;100292.29;1646410;87;21156;-66
2021/03/25 00:37:10;;;;;;;26.48;10.30;;;;;;;-2.99;65.25;100294.53;1646293;87;21214;-68
2021/03/25 00:39:38;;;;;;;22.95;9.55;;;;;;;-2.97;64.76;100289.00;1646540;87;21155;-67
2021/03/25 00:42:07;;;;;;;21.77;9.73;;;;;;;-2.92;64.53;100292.56;1646340;85;21648;-67
2021/03/25 00:44:46;;;;;;;17.25;7.70;;;;;;;-2.91;64.27;100282.69;1624532;86;21208;-67
2021/03/25 00:47:15;;;;;;;14.10;7.60;;;;;;;-2.86;65.64;100295.23;1697231;84;21202;-74
2021/03/25 00:49:44;;;;;;;19.67;9.80;;;;;;;-2.84;65.50;100290.98;1697226;84;21167;-73
2021/03/25 00:52:13;;;;;;;19.23;9.70;;;;;;;-2.80;65.80;100294.08;1725716;83;21207;-75
2021/03/25 00:54:43;;;;;;;24.23;9.73;;;;;;;-2.77;65.54;100295.42;1724415;81;22188;-73
2021/03/25 00:57:11;;;;;;;19.97;9.23;;;;;;;-2.75;65.22;100290.30;1721748;83;21191;-73
2021/03/25 00:59:50;;;;;;;18.87;8.55;;;;;;;-2.73;64.56;100291.63;1720508;83;21234;-74
2021/03/25 01:02:18;;;;;;;19.27;9.23;;;;;;;-2.75;64.17;100293.75;1723620;83;21156;-68
2021/03/25 01:04:47;;;;;;;18.10;9.38;;;;;;;-2.75;65.38;100289.88;1723574;81;21662;-69
2021/03/25 01:07:28;;;;;;;19.55;9.83;;;;;;;-2.72;65.74;100294.65;1723651;83;21225;-68
2021/03/25 01:09:58;;;;;;;20.68;9.43;;;;;;;-2.73;64.93;100295.50;1723487;81;21139;-69
2021/03/25 01:12:27;;;;;;;22.27;10.32;;;;;;;-2.75;64.85;100291.16;1723688;81;21210;-68
2021/03/25 01:14:57;;;;;;;18.33;9.70;;;;;;;-2.77;63.91;100291.55;1723936;80;21213;-75
2021/03/25 01:17:26;;;;;;;24.65;10.75;;;;;;;-2.79;64.62;100291.94;1710084;83;21197;-74
2021/03/25 01:19:55;;;;;;;19.13;9.13;;;;;;;-2.80;65.35;100292.80;1689726;84;21211;-73
2021/03/25 01:22:24;;;;;;;16.82;8.23;;;;;;;-2.80;65.31;100295.38;1672621;85;21223;-72
2021/03/25 01:24:55;;;;;;;19.87;8.60;;;;;;;-2.82;65.25;100291.89;1672582;85;21214;-72
2021/03/25 01:27:24;;;;;;;20.15;9.65;;;;;;;-2.84;65.60;100289.70;1672554;85;21605;-71
2021/03/25 01:30:04;;;;;;;;;;;;;;;-2.85;65.13;100295.70;1664258;81;21240;31
2021/03/25 01:32:32;;;;;;;18.98;8.30;;;;;;;-2.89;64.65;100296.91;1718747;83;21361;-67
2021/03/25 01:35:01;;;;;;;20.32;9.28;;;;;;;-2.93;64.96;100290.80;1742385;82;21233;-66
2021/03/25 01:37:29;;;;;;;21.82;10.38;;;;;;;-2.96;64.80;100285.59;1737441;82;21670;-67
2021/03/25 01:40:00;;;;;;;19.42;9.45;;;;;;;-2.96;65.35;100286.89;1736676;82;21153;-67
2021/03/25 01:42:32;;;;;;;22.52;9.88;;;;;;;-2.96;64.44;100284.31;1736976;82;21228;-67
2021/03/25 01:45:32;;;;;;;22.77;9.65;;;;;;;-3.00;64.05;100282.08;1723715;80;21460;-70
2021/03/25 01:48:03;;;;;;;18.93;9.17;;;;;;;-3.01;64.15;100283.36;1654831;85;21234;-72
2021/03/25 01:50:33;;;;;;;19.45;8.85;;;;;;;-3.03;63.73;100287.18;1655543;85;21257;-72
2021/03/25 01:53:16;;;;;;;18.98;8.40;;;;;;;-3.04;64.12;100297.44;1672769;85;21185;-73
2021/03/25 01:55:58;;;;;;;21.60;9.93;;;;;;;-3.08;64.05;100289.20;1678480;85;21233;-76
2021/03/25 01:58:43;;;;;;;22.58;9.88;;;;;;;-3.13;64.12;100292.10;1644217;86;21225;-76
2021/03/25 02:01:26;;;;;;;16.30;8.85;;;;;;;-3.18;64.19;100292.86;1725822;79;21119;-64
2021/03/25 02:04:26;;;;;;;18.07;8.00;;;;;;;-3.22;65.02;100285.94;1764881;79;21189;-67
2021/03/25 02:07:04;;;;;;;13.18;7.00;;;;;;;-3.25;64.54;100288.42;1753822;81;21186;-64
2021/03/25 02:10:00;;;;;;;19.77;7.77;;;;;;;-3.27;64.90;100292.67;1754216;80;21201;-65
2021/03/25 02:13:05;;;;;;;17.60;8.67;;;;;;;-3.24;65.71;100282.45;1842746;75;22906;-64
2021/03/25 02:16:08;;;;;;;17.03;8.57;;;;;;;-3.30;65.53;100285.31;1798027;77;21192;-80
2021/03/25 02:19:03;;;;;;;16.05;7.95;;;;;;;-3.32;65.22;100287.84;1724681;83;21404;-79
2021/03/25 02:22:07;;;;;;;16.75;7.87;;;;;;;-3.36;64.91;100277.02;1694276;84;21296;-79
2021/03/25 02:25:16;;;;;;;20.60;8.77;;;;;;;-3.37;64.99;100281.31;1721375;83;21205;-80
2021/03/25 02:28:46;;;;;;;17.10;8.07;;;;;;;-3.32;64.62;100283.98;1840730;78;22788;-78
2021/03/25 02:31:32;;;;;;;20.00;8.47;;;;;;;-3.40;64.98;100280.39;1762265;78;21235;-65
2021/03/25 02:34:09;;;;;;;20.87;7.90;;;;;;;-3.40;64.87;100285.55;1671747;84;21229;-67
2021/03/25 02:36:58;;;;;;;15.98;8.30;;;;;;;-3.41;65.80;100279.92;1670576;85;21714;-66
2021/03/25 02:39:35;;;;;;;19.47;8.37;;;;;;;-3.40;66.61;100283.83;1661358;85;21230;-66
2021/03/25 02:43:14;;;;;;;16.67;8.75;;;;;;;-3.38;65.97;100282.16;1851669;75;28347;-65
2021/03/25 02:45:52;;;;;;;19.42;9.33;;;;;;;-3.39;65.91;100282.98;1786328;75;21710;-75
2021/03/25 02:48:23;;;;;;;19.60;8.35;;;;;;;-3.38;65.05;100280.87;1782131;80;21488;-77
2021/03/25 02:51:02;;;;;;;13.35;6.47;;;;;;;-3.41;65.06;100282.49;1774127;80;21147;-77
2021/03/25 02:53:42;;;;;;;17.85;8.33;;;;;;;-3.43;65.87;100280.30;1736142;81;21256;-75
2021/03/25 02:56:29;;;;;;;20.97;9.05;;;;;;;-3.47;65.95;100286.24;1750731;81;21250;-76
2021/03/25 02:59:24;;;;;;;18.52;8.55;;;;;;;-3.51;65.63;100288.30;1744317;81;21218;-76
2021/03/25 03:01:57;;;;;;;17.30;8.10;;;;;;;-3.59;65.79;100285.13;1742389;78;21300;-72
2021/03/25 03:04:33;;;;;;;18.20;8.85;;;;;;;-3.64;66.49;100280.27;1768306;80;21198;-72
2021/03/25 03:07:08;;;;;;;16.17;8.00;;;;;;;-3.67;65.89;100281.50;1771802;79;21447;-75
2021/03/25 03:09:43;;;;;;;19.40;8.17;;;;;;;-3.72;66.00;100288.25;1749225;79;21301;-75
2021/03/25 03:12:17;;;;;;;13.67;6.33;;;;;;;-3.74;66.57;100289.05;1687655;83;21142;-76
2021/03/25 03:14:52;;;;;;;19.70;7.43;;;;;;;-3.77;66.18;100285.10;1691041;83;21361;-76
2021/03/25 03:17:27;;;;;;;12.77;7.30;;;;;;;-3.78;66.30;100277.80;1761931;78;21194;-77
2021/03/25 03:20:27;;;;;;;14.97;7.00;;;;;;;-3.77;66.10;100284.71;1771702;78;21598;-75
2021/03/25 03:23:03;;;;;;;13.90;7.37;;;;;;;-3.77;66.59;100286.00;1769610;78;21202;-77
2021/03/25 03:25:32;;;;;;;16.43;7.60;;;;;;;-3.80;66.15;100283.33;1767077;79;21201;-75
2021/03/25 03:28:17;;;;;;;21.13;8.13;;;;;;;-3.80;66.76;100284.62;1758813;80;21218;-71
2021/03/25 03:30:52;;;;;;;18.03;8.80;;;;;;;-3.80;66.20;100284.62;1750153;77;21111;-68
2021/03/25 03:33:46;;;;;;;13.17;6.90;;;;;;;-3.84;66.10;100290.55;1746689;79;21223;-70
2021/03/25 03:36:18;;;;;;;25.57;7.97;;;;;;;-3.85;65.99;100290.08;1755864;81;21253;-68
2021/03/25 03:38:54;;;;;;;18.07;7.73;;;;;;;-3.87;65.99;100286.17;1740396;81;21253;-68
2021/03/25 03:41:31;;;;;;;16.80;8.53;;;;;;;-3.89;65.90;100292.12;1754040;80;21371;-68
2021/03/25 03:44:03;;;;;;;13.13;7.53;;;;;;;-3.90;66.21;100289.11;1745478;81;21227;-68
2021/03/25 03:46:31;;;;;;;15.70;7.57;;;;;;;-3.91;66.08;100287.34;1738065;78;21650;-72
2021/03/25 03:52:15;;;;;;;18.20;8.33;;;;;;;-3.86;67.20;100285.78;1888032;76;22216;-71
2021/03/25 03:54:48;;;;;;;14.13;6.87;;;;;;;-3.91;67.46;100288.63;1858966;77;21586;-73
2021/03/25 03:57:38;;;;;;;18.73;7.93;;;;;;;-3.91;66.84;100294.67;1801125;77;21214;-73
2021/03/25 04:00:28;;;;;;;14.43;8.08;;;;;;;-3.92;66.71;100290.77;1834867;76;26386;-76
2021/03/25 04:03:40;;;;;;;17.23;7.57;;;;;;;-3.92;66.67;100288.20;1788691;80;21217;-69
2021/03/25 04:06:24;;;;;;;18.93;7.97;;;;;;;-3.93;66.82;100286.05;1754201;80;21150;-69
2021/03/25 04:09:22;;;;;;;19.30;8.60;;;;;;;-3.82;66.48;100291.42;1843841;76;22158;-69
2021/03/25 04:12:14;;;;;;;19.63;9.37;;;;;;;-3.84;67.03;100286.27;1815234;79;21158;-68
2021/03/25 04:14:51;;;;;;;19.10;8.33;;;;;;;-3.80;66.41;100285.91;1815703;79;22195;-66
2021/03/25 04:17:27;;;;;;;15.47;6.80;;;;;;;-3.74;66.21;100287.34;1778851;76;21613;-74
2021/03/25 04:19:59;;;;;;;19.00;9.17;;;;;;;-3.68;66.01;100301.66;1763762;81;21207;-76
2021/03/25 04:22:56;;;;;;;22.77;11.03;;;;;;;-3.57;65.97;100294.16;1868933;76;23392;-75
2021/03/25 04:25:38;;;;;;;19.12;9.23;;;;;;;-3.54;65.96;100295.92;1832962;77;21609;-75
2021/03/25 04:28:17;;;;;;;19.98;8.55;;;;;;;-3.47;65.88;100302.55;1825571;78;21139;-76
2021/03/25 04:30:52;;;;;;;13.63;7.43;;;;;;;-3.41;65.46;100300.09;1825877;77;21501;-75
2021/03/25 04:33:23;;;;;;;16.50;7.40;;;;;;;-3.29;65.77;100300.81;1820920;77;21138;-72
2021/03/25 04:35:53;;;;;;;;;;;;;;;-3.06;64.80;100299.12;1822821;78;21150;-70
2021/03/25 04:38:28;;;;;;;12.30;6.53;;;;;;;-2.62;64.32;100310.33;1817934;78;20280;-73
2021/03/25 04:40:58;;;;;;;20.12;6.75;;;;;;;-2.09;63.05;100304.80;1777274;80;21561;-71
2021/03/25 04:43:29;;;;;;;13.22;7.12;;;;;;;-1.50;62.12;100303.17;1786363;80;21032;-70
2021/03/25 04:46:28;;;;;;;14.20;6.87;;;;;;;-0.88;62.36;100305.30;1752263;77;21168;-76
2021/03/25 04:48:58;;;;;;;17.92;6.85;;;;;;;-0.33;60.72;100300.73;1685756;84;21265;-75
2021/03/25 04:51:27;;;;;;;15.03;7.45;;;;;;;0.30;56.81;100299.11;1702869;84;21553;-75
2021/03/25 04:54:10;;;;;;;13.15;6.97;;;;;;;0.77;55.61;100303.75;1703300;84;21209;-75
2021/03/25 04:56:39;;;;;;;18.40;7.60;;;;;;;1.24;53.94;100304.39;1669932;85;21615;-77
2021/03/25 04:59:08;;;;;;;17.42;7.17;;;;;;;1.65;51.22;100301.91;1702881;82;21229;-75
2021/03/25 05:01:37;;;;;;;15.65;6.80;;;;;;;1.93;50.41;100303.69;1666034;81;21252;-67
2021/03/25 05:04:06;;;;;;;14.75;7.47;;;;;;;2.29;49.42;100298.50;1651245;86;21200;-69
2021/03/25 05:06:57;;;;;;;12.73;6.12;;;;;;;2.29;49.42;100298.50;1674577;85;21357;-69
2021/03/25 05:09:28;;;;;;;11.05;6.03;;;;;;;2.70;49.40;100311.02;1674649;85;21223;-69
2021/03/25 05:11:58;;;;;;;12.23;6.92;;;;;;;3.26;47.06;100301.30;1674642;85;21155;-69
2021/03/25 05:14:28;;;;;;;15.25;7.05;;;;;;;3.63;45.77;100305.02;1647580;85;21232;-68
2021/03/25 05:17:14;;;;;;;11.05;6.20;;;;;;;3.93;45.89;100306.55;1715435;80;21232;-72
2021/03/25 05:19:48;;;;;;;10.40;5.25;;;;;;;4.31;43.75;100307.56;1780977;80;21621;-71
2021/03/25 05:22:45;;;;;;;12.58;6.47;;;;;;;4.70;42.31;100313.28;1781032;80;21224;-71
2021/03/25 05:25:39;;;;;;;14.30;6.42;;;;;;;4.98;41.73;100318.22;1750005;82;21627;-74
2021/03/25 05:28:34;;;;;;;13.00;6.35;;;;;;;5.21;41.04;100317.50;1750174;81;21582;-72
2021/03/25 05:31:10;;;;;;;15.83;6.90;;;;;;;5.57;42.99;100319.23;1746945;81;21229;-75
2021/03/25 05:33:38;;;;;;;11.97;5.97;;;;;;;6.06;43.01;100317.23;1745233;80;21384;-70
2021/03/25 05:36:10;;;;;;;13.60;6.47;;;;;;;6.59;40.69;100326.84;1735579;82;21673;-71
2021/03/25 05:38:38;;;;;;;;;;;;;;;7.08;39.36;100320.69;1694051;82;21203;-70
2021/03/25 05:41:14;;;;;;;12.05;5.90;;;;;;;7.38;38.02;100322.27;1755065;80;20281;-70
2021/03/25 05:44:07;;;;;;;10.58;5.65;;;;;;;7.72;36.85;100320.65;1741773;82;21194;-70
2021/03/25 05:46:47;;;;;;;13.13;5.37;;;;;;;8.06;36.46;100323.82;1743516;77;21381;-78
2021/03/25 05:49:47;;;;;;;14.10;6.28;;;;;;;8.36;37.76;100327.92;1726086;82;21208;-78
2021/03/25 05:52:35;;;;;;;13.75;5.40;;;;;;;8.65;33.19;100325.02;1728966;81;22053;-75
2021/03/25 05:55:21;;;;;;;10.55;4.83;;;;;;;8.68;33.75;100330.22;1733904;81;21469;-76
2021/03/25 05:58:16;;;;;;;11.28;5.90;;;;;;;8.79;32.29;100324.23;1721087;81;21181;-78
2021/03/25 06:04:07;;;;;;;12.00;5.30;;;;;;;9.20;33.04;100336.66;1696051;82;21600;-67
2021/03/25 06:07:06;;;;;;;11.73;5.33;;;;;;;9.61;31.73;100337.24;1715864;81;21297;-69
2021/03/25 06:10:00;;;;;;;11.15;5.28;;;;;;;9.87;30.96;100334.70;1712767;83;21162;-69
2021/03/25 06:13:18;;;;;;;12.55;5.03;;;;;;;10.25;31.43;100333.93;1715439;82;21194;-67
2021/03/25 06:16:27;;;;;;;13.30;5.37;;;;;;;10.56;30.87;100326.39;1716288;82;21417;-70
2021/03/25 06:19:21;;;;;;;10.48;4.35;;;;;;;11.03;29.77;100336.18;1686721;84;21154;-75
2021/03/25 06:22:15;;;;;;;7.25;4.42;;;;;;;11.24;28.21;100333.22;1684736;83;21226;-78
2021/03/25 06:25:17;;;;;;;8.90;4.47;;;;;;;11.19;28.66;100337.34;1691203;84;21201;-76
2021/03/25 06:28:06;;;;;;;10.65;3.75;;;;;;;11.18;27.25;100334.75;1707164;83;21192;-76
2021/03/25 06:30:39;;;;;;;7.85;4.90;;;;;;;11.33;28.32;100342.11;1711533;83;21389;-75
2021/03/25 06:33:38;;;;;;;6.22;4.37;;;;;;;11.63;28.12;100336.61;1713376;79;21234;-69
2021/03/25 06:36:13;;;;;;;16.80;4.67;;;;;;;11.84;27.52;100333.14;1705063;84;21159;-69
2021/03/25 06:38:48;;;;;;;6.25;3.80;;;;;;;12.12;26.79;100326.80;1704261;83;21154;-70
2021/03/25 06:41:48;;;;;;;7.28;3.95;;;;;;;12.50;27.04;100334.95;1707002;82;21209;-70
2021/03/25 06:44:36;;;;;;;6.47;3.65;;;;;;;12.94;25.12;100329.55;1705215;83;21408;-70
2021/03/25 06:47:17;;;;;;;6.80;3.85;;;;;;;13.06;25.41;100329.00;1729629;77;21196;-77
2021/03/25 06:49:50;;;;;;;5.83;3.33;;;;;;;13.22;24.90;100334.47;1796153;79;21181;-75
2021/03/25 06:52:30;;;;;;;8.13;3.80;;;;;;;13.41;25.50;100329.23;1795641;79;21176;-78
2021/03/25 06:55:19;;;;;;;6.23;3.43;;;;;;;13.52;24.45;100324.31;1799021;78;21423;-76
2021/03/25 06:58:04;;;;;;;8.58;3.77;;;;;;;13.79;23.90;100326.61;1789695;79;21491;-76
2021/03/25 07:00:36;;;;;;;4.12;3.05;;;;;;;13.77;22.40;100316.56;1802065;78;22283;-76
2021/03/25 07:03:06;;;;;;;15.93;3.62;;;;;;;13.58;25.09;100318.75;1711976;78;21215;-70
2021/03/25 07:05:35;;;;;;;7.22;3.10;;;;;;;13.88;24.01;100313.41;1666232;84;28858;-71
2021/03/25 07:08:23;;;;;;;9.38;3.30;;;;;;;14.05;23.55;100315.62;1666663;85;21201;-72
2021/03/25 07:10:53;;;;;;;20.23;4.05;;;;;;;13.96;23.33;100316.06;1664390;84;21295;-70
2021/03/25 07:13:31;;;;;;;6.78;2.80;;;;;;;14.10;23.76;100317.19;1665841;84;21241;-71
2021/03/25 07:16:02;;;;;;;6.70;2.70;;;;;;;14.21;21.91;100302.96;1665715;84;21260;-70
2021/03/25 07:19:06;;;;;;;4.17;2.60;;;;;;;14.11;21.77;100309.19;1699581;76;21222;-78
2021/03/25 07:21:47;;;;;;;4.45;3.10;;;;;;;14.23;22.89;100313.02;1697533;82;21236;-76
2021/03/25 07:24:34;;;;;;;;;;;;;;;14.61;22.41;100308.49;1700340;82;21406;-75
2021/03/25 07:27:22;;;;;;;4.70;3.12;;;;;;;14.71;21.39;100303.57;1734628;81;20870;-78
2021/03/25 07:30:09;;;;;;;4.90;3.10;;;;;;;14.75;21.62;100309.11;1715943;81;21177;-76
2021/03/25 07:32:53;;;;;;;12.53;2.98;;;;;;;14.83;22.92;100308.23;1744024;79;21167;-71
2021/03/25 07:36:14;;;;;;;4.85;3.20;;;;;;;15.27;20.88;100307.67;1795048;77;22699;-71
2021/03/25 07:38:42;;;;;;;11.35;3.15;;;;;;;15.12;20.17;100307.19;1780306;79;21187;-71
2021/03/25 07:41:25;;;;;;;3.95;2.55;;;;;;;14.95;19.77;100308.53;1767752;79;21178;-70
2021/03/25 07:44:03;;;;;;;5.50;3.25;;;;;;;15.06;19.56;100300.88;1770281;79;26293;-70
2021/03/25 07:46:46;;;;;;;4.00;2.50;;;;;;;14.99;19.70;100299.48;1712597;83;21165;-71
2021/03/25 07:49:19;;;;;;;6.40;2.02;;;;;;;14.90;20.05;100302.99;1615311;88;21241;-75
2021/03/25 07:52:04;;;;;;;9.18;2.58;;;;;;;15.01;19.11;100305.56;1676325;85;21674;-76
2021/03/25 07:54:39;;;;;;;4.58;1.92;;;;;;;15.29;19.25;100295.66;1614456;86;21242;-75
2021/03/25 07:57:16;;;;;;;4.28;2.08;;;;;;;15.38;18.21;100295.64;1653322;86;21678;-77
2021/03/25 07:59:51;;;;;;;42.58;3.25;;;;;;;15.44;18.46;100288.69;1653329;85;21195;-76
2021/03/25 08:02:33;;;;;;;7.30;2.45;;;;;;;15.36;17.72;100292.21;1656028;82;21727;-73
2021/03/25 08:08:09;;;;;;;2.75;2.37;;;;;;;15.14;16.79;100296.03;1871229;76;22654;-71
2021/03/25 08:10:43;;;;;;;3.58;2.15;;;;;;;14.87;16.68;100297.86;1820502;77;21689;-72
2021/03/25 08:13:24;;;;;;;14.43;2.75;;;;;;;14.45;16.41;100299.10;1813361;78;21184;-71
2021/03/25 08:16:11;;;;;;;7.90;3.00;;;;;;;14.34;18.71;100293.95;1826421;77;21164;-72
2021/03/25 08:19:11;;;;;;;4.67;2.80;;;;;;;14.04;17.41;100297.17;1729846;77;21177;-75
2021/03/25 08:22:19;;;;;;;5.58;3.08;;;;;;;14.25;17.42;100288.64;1729126;83;21226;-75
2021/03/25 08:25:19;;;;;;;3.85;2.37;;;;;;;14.53;17.33;100296.53;1677763;84;21228;-73
2021/03/25 08:28:02;;;;;;;6.47;1.95;;;;;;;14.62;18.52;100298.74;1657219;84;21843;-75
2021/03/25 08:30:59;;;;;;;7.70;2.72;;;;;;;14.96;16.88;100308.46;1706196;83;21259;-75
2021/03/25 08:34:00;;;;;;;4.22;2.42;;;;;;;15.28;16.83;100309.41;1740450;80;21245;-72
2021/03/25 08:36:58;;;;;;;3.98;2.42;;;;;;;15.67;16.65;100305.52;1683145;81;21569;-73
2021/03/25 08:39:54;;;;;;;5.55;2.55;;;;;;;15.92;19.77;100310.83;1753754;81;21194;-71
2021/03/25 08:42:35;;;;;;;3.58;2.08;;;;;;;16.26;16.44;100313.72;1762603;80;22339;-72
2021/03/25 08:45:38;;;;;;;5.17;2.77;;;;;;;16.17;15.93;100308.94;1753658;80;21218;-71
2021/03/25 08:48:40;;;;;;;3.92;2.35;;;;;;;15.92;16.20;100304.19;1768878;77;21215;-76
2021/03/25 08:51:15;;;;;;;5.15;2.42;;;;;;;15.81;16.21;100298.63;1776596;80;21198;-77
2021/03/25 08:53:54;;;;;;;7.17;3.17;;;;;;;15.87;15.62;100303.57;1771697;79;21685;-76
2021/03/25 08:56:55;;;;;;;6.15;2.50;;;;;;;15.86;16.85;100301.87;1752957;81;22706;-76
2021/03/25 08:59:38;;;;;;;7.30;3.45;;;;;;;16.02;16.45;100298.73;1752899;81;21192;-76
2021/03/25 09:02:14;;;;;;;9.05;3.22;;;;;;;15.89;16.59;100285.75;1751888;79;21303;-72
2021/03/25 09:04:53;;;;;;;5.58;2.92;;;;;;;15.51;16.90;100292.72;1708055;84;21783;-72
2021/03/25 09:07:22;;;;;;;10.13;3.20;;;;;;;15.24;17.44;100302.55;1708265;84;21205;-70
2021/03/25 09:09:54;;;;;;;7.33;3.05;;;;;;;14.65;17.62;100297.25;1708218;84;21259;-71
2021/03/25 09:12:28;;;;;;;5.58;3.33;;;;;;;14.11;18.01;100303.04;1704835;84;21252;-72
2021/03/25 09:14:57;;;;;;;4.97;3.10;;;;;;;13.79;18.46;100305.44;1708141;84;21213;-72
2021/03/25 09:17:30;;;;;;;7.58;3.60;;;;;;;13.77;18.55;100299.36;1710964;79;21792;-76
2021/03/25 09:19:59;;;;;;;5.40;3.08;;;;;;;13.80;18.99;100300.08;1725223;83;21818;-77
2021/03/25 09:22:38;;;;;;;9.93;3.33;;;;;;;13.96;19.86;100294.88;1725932;83;21519;-76
2021/03/25 09:25:31;;;;;;;5.25;3.25;;;;;;;14.22;19.21;100292.77;1696728;84;21179;-76
2021/03/25 09:28:15;;;;;;;6.22;2.47;;;;;;;14.03;18.46;100296.33;1696915;83;21196;-76
2021/03/25 09:30:44;;;;;;;5.92;2.45;;;;;;;14.00;22.02;100285.86;1697092;84;21186;-76
2021/03/25 09:33:42;;;;;;;9.60;3.10;;;;;;;14.44;19.98;100290.74;1707132;79;21168;-71
2021/03/25 09:36:34;;;;;;;7.12;3.00;;;;;;;14.73;18.70;100283.15;1718235;83;21212;-71
2021/03/25 09:39:12;;;;;;;6.12;3.42;;;;;;;14.88;17.60;100289.43;1716787;81;21596;-72
2021/03/25 09:41:42;;;;;;;3.58;2.65;;;;;;;14.77;18.60;100279.41;1732662;82;21397;-71
2021/03/25 09:44:17;;;;;;;7.08;3.08;;;;;;;14.88;19.35;100284.13;1749670;81;21178;-72
2021/03/25 09:47:00;;;;;;;8.05;3.20;;;;;;;14.63;17.58;100279.23;1750630;81;21627;-71
2021/03/25 09:49:56;;;;;;;6.83;3.50;;;;;;;14.14;18.00;100277.72;1638077;84;21228;-77
2021/03/25 09:52:37;;;;;;;10.65;3.90;;;;;;;13.90;18.42;100284.61;1672800;84;21190;-76
2021/03/25 09:55:14;;;;;;;10.35;4.03;;;;;;;13.78;18.69;100293.12;1674050;85;21190;-76
2021/03/25 09:57:44;;;;;;;11.05;3.75;;;;;;;13.84;18.68;100278.28;1672704;85;21194;-76
2021/03/25 10:00:31;;;;;;;6.78;2.58;;;;;;;14.16;19.19;100275.38;1671775;84;21209;-76
2021/03/25 10:03:06;;;;;;;9.90;2.98;;;;;;;14.45;17.90;100275.25;1676249;81;21354;-72
2021/03/25 10:05:39;;;;;;;7.40;2.92;;;;;;;13.92;18.19;100274.80;1695114;84;21179;-73
2021/03/25 10:08:15;;;;;;;6.42;3.00;;;;;;;13.46;19.32;100280.97;1694824;84;21136;-72
2021/03/25 10:10:55;;;;;;;12.05;4.28;;;;;;;12.90;19.44;100285.67;1692422;84;21187;-73
2021/03/25 10:13:43;;;;;;;8.98;3.05;;;;;;;12.69;20.14;100290.96;1695561;84;21160;-72
2021/03/25 10:16:38;;;;;;;12.53;2.92;;;;;;;13.01;21.24;100282.09;1696375;83;21409;-71
2021/03/25 10:19:10;;;;;;;8.10;3.45;;;;;;;13.47;19.93;100278.70;1728930;79;21197;-75
2021/03/25 10:21:55;;;;;;;7.10;3.10;;;;;;;13.71;19.76;100278.47;1765257;80;21186;-77
2021/03/25 10:24:28;;;;;;;8.65;3.20;;;;;;;13.71;19.27;100281.99;1753094;81;21178;-76
2021/03/25 10:27:19;;;;;;;5.28;3.17;;;;;;;13.32;19.37;100279.40;1755860;80;21226;-76
2021/03/25 10:29:47;;;;;;;6.60;3.05;;;;;;;12.99;20.11;100269.39;1756475;80;21376;-75
2021/03/25 10:32:37;;;;;;;4.83;3.27;;;;;;;12.72;19.63;100282.04;1758825;80;21198;-75
2021/03/25 10:35:07;;;;;;;7.67;3.20;;;;;;;12.54;19.89;100275.79;1678856;84;21218;-72
2021/03/25 10:37:41;;;;;;;11.85;4.20;;;;;;;12.49;20.80;100270.70;1678923;84;21238;-71
2021/03/25 10:40:38;;;;;;;8.75;3.50;;;;;;;12.37;21.33;100271.20;1679322;82;21214;-73
2021/03/25 10:43:16;;;;;;;6.80;3.98;;;;;;;12.33;21.97;100269.17;1671204;84;21607;-72
2021/03/25 10:45:53;;;;;;;9.63;3.58;;;;;;;12.45;23.41;100259.02;1639782;86;21256;-72
2021/03/25 10:48:40;;;;;;;5.65;2.62;;;;;;;12.74;21.35;100265.19;1647629;81;21212;-84
2021/03/25 10:51:17;;;;;;;5.92;2.90;;;;;;;12.87;20.48;100274.77;1726949;82;21228;-85
2021/03/25 10:53:50;;;;;;;6.87;2.85;;;;;;;12.96;20.53;100256.33;1726744;82;21151;-84
2021/03/25 10:56:37;;;;;;;4.00;2.92;;;;;;;13.25;21.27;100257.66;1727652;82;21675;-77
2021/03/25 10:59:18;;;;;;;5.10;3.40;;;;;;;13.51;19.50;100261.75;1728628;82;21614;-82
2021/03/25 11:01:55;;;;;;;5.33;2.98;;;;;;;13.62;20.78;100253.32;1693004;83;21232;-75
2021/03/25 11:04:34;;;;;;;5.80;2.83;;;;;;;13.30;19.51;100252.19;1658223;81;21674;-80
2021/03/25 11:07:19;;;;;;;24.37;3.47;;;;;;;12.86;19.84;100257.65;1668339;84;21517;-76
2021/03/25 11:10:00;;;;;;;7.37;2.98;;;;;;;12.66;19.91;100259.40;1679367;84;22180;-76
2021/03/25 11:12:32;;;;;;;4.50;2.58;;;;;;;12.43;20.25;100246.33;1679321;84;21277;-76
2021/03/25 11:15:05;;;;;;;5.50;2.37;;;;;;;12.27;20.09;100249.61;1672079;84;21202;-79
2021/03/25 11:17:44;;;;;;;7.87;2.58;;;;;;;12.21;20.41;100248.53;1666395;84;21203;-77
2021/03/25 11:20:20;;;;;;;4.80;2.55;;;;;;;12.15;20.83;100248.34;1735596;81;21154;-76
2021/03/25 11:22:51;;;;;;;8.98;2.50;;;;;;;12.14;20.57;100247.93;1733769;82;21163;-79
2021/03/25 11:25:30;;;;;;;6.67;2.85;;;;;;;12.08;21.71;100240.75;1740944;81;21202;-78
2021/03/25 11:28:09;;;;;;;4.92;2.90;;;;;;;12.15;21.55;100238.25;1743410;82;21179;-74
2021/03/25 11:30:49;;;;;;;7.87;3.10;;;;;;;12.27;21.44;100240.37;1742067;82;21179;-76
2021/03/25 11:33:38;;;;;;;20.45;3.40;;;;;;;12.28;20.59;100238.11;1710457;79;21273;-78
2021/03/25 11:36:10;;;;;;;9.88;2.87;;;;;;;11.99;20.71;100234.54;1669055;85;22284;-79
2021/03/25 11:38:41;;;;;;;8.03;2.90;;;;;;;11.73;21.53;100228.05;1671836;85;21224;-79
2021/03/25 11:41:22;;;;;;;6.58;2.62;;;;;;;11.61;20.96;100231.62;1678148;85;21198;-79
2021/03/25 11:43:56;;;;;;;7.75;3.02;;;;;;;11.59;21.43;100225.54;1668619;85;21643;-77
2021/03/25 11:46:33;;;;;;;4.37;2.60;;;;;;;11.60;20.60;100226.81;1675202;85;21227;-77
2021/03/25 11:49:17;;;;;;;7.17;2.50;;;;;;;11.49;20.55;100221.95;1679925;81;21166;-79
2021/03/25 11:51:59;;;;;;;3.90;2.10;;;;;;;11.42;21.25;100220.47;1692806;83;21232;-78
2021/03/25 11:54:36;;;;;;;3.45;2.30;;;;;;;11.26;19.78;100216.72;1719244;83;21210;-79
2021/03/25 11:57:26;;;;;;;3.50;2.27;;;;;;;11.12;20.14;100227.31;1718709;83;21214;-79
2021/03/25 12:00:14;;;;;;;8.38;2.77;;;;;;;10.95;21.57;100223.16;1716533;83;21162;-79
2021/03/25 12:02:45;;;;;;;4.80;2.62;;;;;;;10.94;22.06;100229.32;1718688;83;22307;-78
2021/03/25 12:05:41;;;;;;;4.95;2.27;;;;;;;10.97;21.75;100225.25;1716987;82;21214;-73
2021/03/25 12:08:18;;;;;;;7.22;2.50;;;;;;;11.01;20.84;100220.27;1683414;83;21206;-74
2021/03/25 12:10:58;;;;;;;6.37;2.58;;;;;;;11.09;21.60;100217.37;1719052;83;21167;-74
2021/03/25 12:13:26;;;;;;;7.65;2.42;;;;;;;11.21;20.77;100218.67;1657982;84;21205;-74
2021/03/25 12:15:55;;;;;;;6.42;2.50;;;;;;;11.24;22.53;100214.59;1683445;83;21748;-74
2021/03/25 12:18:31;;;;;;;10.35;3.12;;;;;;;11.38;22.02;100213.59;1684460;81;21468;-74
2021/03/25 12:21:05;;;;;;;5.05;2.25;;;;;;;11.51;25.72;100212.20;1684409;85;21175;-70
2021/03/25 12:23:37;;;;;;;5.62;2.80;;;;;;;11.68;23.63;100215.94;1669627;85;21196;-74
2021/03/25 12:26:13;;;;;;;14.30;3.80;;;;;;;11.71;24.95;100211.84;1670839;85;21675;-73
2021/03/25 12:28:41;;;;;;;4.37;2.92;;;;;;;11.68;20.63;100216.80;1684793;84;21944;-73
2021/03/25 12:31:14;;;;;;;4.47;2.50;;;;;;;11.55;21.26;100211.16;1682855;84;21225;-73
2021/03/25 12:33:42;;;;;;;5.85;2.92;;;;;;;11.52;20.87;100206.45;1674683;80;21211;-73